Time;durP1;ratioP1;P1;durP2;ratioP2;P2;SDS_P1;SDS_P2;PMS_P1;PMS_P2;Temp;Humidity;BMP_temperature;BMP_pressure;BME280_temperature;BME280_humidity;BME280_pressure;Samples;Min_cycle;Max_cycle;Signal;HPM_P1;HPM_P2
2023/03/30 00:00:54;;;;;;;13.27;7.07;;;8.60;99.90;;;;;;5035995;28;20385;-66
2023/03/30 00:03:21;;;;;;;16.77;7.22;;;8.60;99.90;;;;;;5038805;28;20036;-66
2023/03/30 00:05:48;;;;;;;16.35;7.00;;;8.60;99.90;;;;;;5030814;28;20033;-66
2023/03/30 00:08:17;;;;;;;13.93;6.97;;;8.50;99.90;;;;;;5008684;28;20148;-65
2023/03/30 00:10:43;;;;;;;15.68;6.70;;;8.50;99.90;;;;;;5030671;28;20501;-67
2023/03/30 00:13:10;;;;;;;17.80;7.45;;;8.50;99.90;;;;;;5047385;28;20041;-66
2023/03/30 00:15:36;;;;;;;16.35;6.55;;;8.50;99.90;;;;;;5008308;28;20045;-66
2023/03/30 00:18:02;;;;;;;13.25;6.82;;;8.50;99.90;;;;;;5037889;28;20397;-66
2023/03/30 00:20:31;;;;;;;17.08;6.95;;;8.50;99.90;;;;;;5045485;28;20056;-66
2023/03/30 00:22:57;;;;;;;16.10;6.90;;;8.40;99.90;;;;;;5044814;28;20033;-66
2023/03/30 00:25:23;;;;;;;18.08;7.80;;;8.40;99.90;;;;;;5036426;28;20029;-62
2023/03/30 00:27:48;;;;;;;17.02;7.57;;;8.40;99.90;;;;;;5018803;28;20041;-66
2023/03/30 00:30:15;;;;;;;17.25;7.03;;;8.30;99.90;;;;;;5029018;28;20025;-67
2023/03/30 00:32:45;;;;;;;15.00;6.40;;;8.30;99.90;;;;;;5030346;28;20040;-66
2023/03/30 00:35:12;;;;;;;20.70;5.93;;;8.10;99.90;;;;;;5030701;28;20061;-67
2023/03/30 00:37:38;;;;;;;11.50;5.32;;;8.00;99.90;;;;;;5007918;28;20030;-66
2023/03/30 00:40:13;;;;;;;13.18;3.70;;;8.10;99.90;;;;;;5024692;28;20033;-66
2023/03/30 00:42:39;;;;;;;14.93;2.70;;;8.50;99.90;;;;;;5037919;28;20146;-66
2023/03/30 00:45:17;;;;;;;20.92;2.90;;;9.80;99.90;;;;;;5032443;28;20042;-67
2023/03/30 00:47:54;;;;;;;21.20;2.90;;;10.50;99.90;;;;;;5021973;28;20040;-65
2023/03/30 00:50:22;;;;;;;19.52;3.67;;;11.00;99.90;;;;;;5025942;28;20057;-67
2023/03/30 00:52:51;;;;;;;16.92;2.97;;;11.10;99.90;;;;;;5025855;28;20091;-66
2023/03/30 00:55:22;;;;;;;12.10;3.10;;;11.20;99.90;;;;;;5017449;28;20038;-67
2023/03/30 00:57:50;;;;;;;10.65;2.70;;;11.20;99.90;;;;;;5017801;28;20032;-67
2023/03/30 01:00:15;;;;;;;11.02;2.30;;;11.20;99.90;;;;;;5016886;28;20087;-66
2023/03/30 01:02:47;;;;;;;13.93;2.95;;;11.20;99.90;;;;;;5021619;28;20018;-67
2023/03/30 01:05:13;;;;;;;12.18;2.47;;;11.10;99.90;;;;;;5015408;28;20053;-67
2023/03/30 01:07:39;;;;;;;9.13;3.00;;;11.00;99.90;;;;;;5025716;28;20037;-66
2023/03/30 01:10:07;;;;;;;15.05;3.13;;;10.90;99.90;;;;;;5030032;28;20033;-65
2023/03/30 01:12:33;;;;;;;18.92;3.10;;;10.80;99.90;;;;;;5011292;28;20029;-67
2023/03/30 01:14:59;;;;;;;11.38;3.72;;;10.70;99.90;;;;;;5030547;28;20037;-66
2023/03/30 01:17:51;;;;;;;17.90;3.50;;;10.60;99.90;;;;;;5031108;28;20033;-68
2023/03/30 01:20:46;;;;;;;10.20;3.78;;;10.60;99.90;;;;;;5036628;28;20109;-67
2023/03/30 01:23:34;;;;;;;10.85;3.40;;;10.50;99.90;;;;;;5017625;28;20090;-67
2023/03/30 01:26:12;;;;;;;12.98;3.72;;;10.30;99.90;;;;;;5037605;28;20465;-67
2023/03/30 01:28:56;;;;;;;14.02;3.63;;;10.10;99.90;;;;;;5027378;28;20136;-66
2023/03/30 01:32:06;;;;;;;15.90;4.28;;;10.10;99.90;;;;;;5019075;28;20123;-68
2023/03/30 01:34:31;;;;;;;14.33;3.43;;;10.00;99.90;;;;;;5007796;28;20544;-67
2023/03/30 01:37:06;;;;;;;12.55;3.15;;;10.00;99.90;;;;;;5028265;28;20313;-67
2023/03/30 01:39:49;;;;;;;12.35;3.53;;;10.10;99.90;;;;;;5039141;28;20092;-67
2023/03/30 01:42:31;;;;;;;18.80;3.92;;;10.20;99.90;;;;;;5030901;28;20056;-66
2023/03/30 01:45:09;;;;;;;13.63;3.47;;;10.30;99.90;;;;;;5028470;28;20042;-68
2023/03/30 01:47:46;;;;;;;11.32;3.22;;;10.20;99.90;;;;;;5021151;28;20035;-68
2023/03/30 01:50:19;;;;;;;14.60;3.42;;;10.20;99.90;;;;;;5030511;28;20041;-67
2023/03/30 01:52:52;;;;;;;17.08;4.38;;;10.30;99.90;;;;;;5045763;28;20487;-67
2023/03/30 01:55:31;;;;;;;9.38;3.45;;;10.30;99.90;;;;;;5030895;28;20022;-68
2023/03/30 01:57:59;;;;;;;12.85;3.40;;;10.30;99.90;;;;;;5050987;28;20036;-66
2023/03/30 02:00:26;;;;;;;15.05;3.20;;;10.40;99.90;;;;;;5036854;28;20112;-66
2023/03/30 02:03:13;;;;;;;11.95;3.13;;;10.40;99.90;;;;;;5043989;28;20021;-67
2023/03/30 02:05:41;;;;;;;15.30;3.35;;;10.40;99.90;;;;;;5027441;28;20148;-67
2023/03/30 02:08:19;;;;;;;17.55;3.20;;;10.40;99.90;;;;;;5047832;28;20033;-67
2023/03/30 02:10:47;;;;;;;14.48;4.25;;;10.40;99.90;;;;;;5019954;28;20044;-67
2023/03/30 02:13:14;;;;;;;12.10;4.20;;;10.30;99.90;;;;;;5010893;28;20112;-66
2023/03/30 02:15:44;;;;;;;18.13;4.38;;;10.00;99.90;;;;;;5019975;28;20045;-67
2023/03/30 02:18:10;;;;;;;12.65;3.58;;;9.90;99.90;;;;;;5027867;28;20017;-67
2023/03/30 02:20:37;;;;;;;20.02;3.42;;;9.90;99.90;;;;;;5040202;28;20053;-67
2023/03/30 02:23:04;;;;;;;11.13;4.15;;;9.80;99.90;;;;;;5028827;28;20394;-68
2023/03/30 02:25:31;;;;;;;15.88;3.35;;;9.80;99.90;;;;;;5022499;28;20091;-62
2023/03/30 02:27:56;;;;;;;13.45;3.55;;;9.80;99.90;;;;;;5025413;28;20467;-67
2023/03/30 02:30:22;;;;;;;15.88;3.63;;;9.90;99.90;;;;;;5030871;28;20031;-68
2023/03/30 02:32:52;;;;;;;12.90;3.40;;;10.00;99.90;;;;;;5029832;28;20068;-66
2023/03/30 02:35:52;;;;;;;12.45;3.88;;;10.30;99.90;;;;;;5033581;28;20442;-66
2023/03/30 02:38:39;;;;;;;14.18;3.33;;;10.60;99.90;;;;;;5020230;28;20025;-67
2023/03/30 02:41:31;;;;;;;18.90;3.67;;;10.70;99.90;;;;;;5018209;28;20033;-67
2023/03/30 02:44:22;;;;;;;20.67;3.35;;;10.90;99.90;;;;;;5019780;28;20025;-67
2023/03/30 02:46:56;;;;;;;18.05;3.60;;;11.00;99.90;;;;;;5048131;28;20033;-67
2023/03/30 02:49:52;;;;;;;12.98;3.80;;;11.20;99.90;;;;;;5040525;28;20055;-67
2023/03/30 02:52:48;;;;;;;16.42;4.30;;;11.00;99.90;;;;;;5024172;28;20038;-67
2023/03/30 02:55:16;;;;;;;10.73;3.33;;;10.50;99.90;;;;;;5020240;28;20038;-67
2023/03/30 02:58:02;;;;;;;19.48;3.33;;;10.40;99.90;;;;;;5021554;28;20398;-67
2023/03/30 03:00:31;;;;;;;14.65;3.17;;;10.80;99.90;;;;;;5023741;28;20033;-67
2023/03/30 03:03:00;;;;;;;25.25;3.25;;;11.40;99.90;;;;;;5026587;28;20116;-67
2023/03/30 03:05:26;;;;;;;19.08;3.90;;;11.60;99.90;;;;;;5017543;28;20052;-65
2023/03/30 03:07:52;;;;;;;15.40;3.25;;;11.90;99.90;;;;;;5021158;28;20037;-66
2023/03/30 03:10:18;;;;;;;15.25;4.22;;;12.00;99.90;;;;;;5037106;28;20036;-67
2023/03/30 03:12:44;;;;;;;24.30;4.28;;;12.00;99.90;;;;;;5033059;28;20043;-67
2023/03/30 03:15:11;;;;;;;17.10;3.45;;;12.10;99.90;;;;;;5028491;28;20048;-64
2023/03/30 03:17:37;;;;;;;23.92;3.30;;;12.10;99.90;;;;;;5042809;28;20044;-63
2023/03/30 03:20:04;;;;;;;17.83;3.58;;;12.20;99.90;;;;;;5031978;28;20029;-66
2023/03/30 03:22:30;;;;;;;20.55;3.72;;;12.30;99.90;;;;;;5030043;28;20043;-65
2023/03/30 03:24:56;;;;;;;17.63;3.60;;;12.30;99.90;;;;;;5023909;28;20943;-66
2023/03/30 03:27:21;;;;;;;22.70;3.65;;;12.30;99.90;;;;;;5029527;28;20079;-67
2023/03/30 03:29:48;;;;;;;15.88;3.55;;;12.30;99.90;;;;;;5029220;28;20466;-67
2023/03/30 03:32:14;;;;;;;31.13;4.13;;;12.30;99.90;;;;;;5028783;28;20029;-66
2023/03/30 03:34:43;;;;;;;30.20;3.38;;;12.30;99.90;;;;;;5025454;28;20379;-66
2023/03/30 03:37:09;;;;;;;20.83;3.67;;;12.30;99.90;;;;;;5027999;28;20038;-67
2023/03/30 03:39:36;;;;;;;21.27;3.97;;;12.20;99.90;;;;;;5028365;28;20561;-63
2023/03/30 03:42:05;;;;;;;18.63;4.28;;;12.20;99.90;;;;;;5038524;28;20112;-67
2023/03/30 03:44:31;;;;;;;18.08;3.75;;;12.10;99.90;;;;;;5035579;28;20025;-67
2023/03/30 03:46:57;;;;;;;26.30;3.97;;;12.00;99.90;;;;;;5028718;28;20095;-67
2023/03/30 03:49:22;;;;;;;18.00;4.03;;;12.00;99.90;;;;;;5022533;28;20467;-68
2023/03/30 03:51:48;;;;;;;22.50;4.05;;;11.90;99.90;;;;;;5047085;28;20041;-66
2023/03/30 03:54:15;;;;;;;23.08;3.47;;;11.90;99.90;;;;;;5043416;28;20036;-66
2023/03/30 03:56:40;;;;;;;19.13;3.92;;;11.80;99.90;;;;;;5020364;28;20500;-65
2023/03/30 03:59:06;;;;;;;19.65;3.70;;;11.80;99.90;;;;;;5015039;28;20035;-68
2023/03/30 04:01:32;;;;;;;16.15;3.28;;;11.70;99.90;;;;;;5027939;28;20063;-69
2023/03/30 04:03:57;;;;;;;22.98;4.45;;;11.70;99.90;;;;;;5022797;28;20029;-69
2023/03/30 04:06:23;;;;;;;16.20;4.22;;;11.60;99.90;;;;;;5015933;28;20085;-70
2023/03/30 04:08:49;;;;;;;14.20;4.75;;;11.70;99.90;;;;;;5008064;28;20429;-69
2023/03/30 04:11:14;;;;;;;22.20;3.97;;;11.60;99.90;;;;;;5029337;28;20028;-69
2023/03/30 04:13:40;;;;;;;26.20;4.10;;;11.60;99.90;;;;;;5026953;28;20044;-66
2023/03/30 04:16:07;;;;;;;28.73;3.90;;;11.60;99.90;;;;;;5028711;28;20134;-67
2023/03/30 04:18:33;;;;;;;17.73;3.97;;;11.60;99.90;;;;;;5031543;28;20036;-69
2023/03/30 04:21:01;;;;;;;29.00;4.93;;;11.60;99.90;;;;;;5030970;28;20254;-69
2023/03/30 04:23:34;;;;;;;19.58;4.55;;;11.70;99.90;;;;;;5011165;28;20415;-69
2023/03/30 04:26:01;;;;;;;20.10;4.65;;;11.60;99.90;;;;;;5011459;28;20588;-70
2023/03/30 04:28:28;;;;;;;25.08;4.60;;;11.50;99.90;;;;;;5024543;28;20035;-67
2023/03/30 04:31:03;;;;;;;22.70;3.92;;;11.50;99.90;;;;;;5027743;28;20033;-68
2023/03/30 04:33:29;;;;;;;17.45;4.05;;;11.50;99.90;;;;;;5028752;28;20034;-68
2023/03/30 04:35:55;;;;;;;27.48;5.00;;;11.60;99.90;;;;;;5027954;28;20068;-68
2023/03/30 04:38:21;;;;;;;18.80;3.80;;;11.70;99.90;;;;;;5030010;28;20060;-68
2023/03/30 04:40:51;;;;;;;19.98;4.20;;;11.70;99.90;;;;;;5026545;28;20033;-68
2023/03/30 04:43:21;;;;;;;;;;;11.70;99.90;;;;;;5027126;28;20037;-67
2023/03/30 04:45:51;;;;;;;23.98;4.13;;;11.60;99.90;;;;;;5027712;28;19917;-68
2023/03/30 04:48:18;;;;;;;20.70;4.13;;;11.50;99.90;;;;;;5028540;28;20025;-68
2023/03/30 04:50:45;;;;;;;20.60;4.45;;;11.50;99.90;;;;;;5028519;28;20044;-69
2023/03/30 04:53:11;;;;;;;18.25;4.47;;;11.30;99.90;;;;;;5030836;28;20033;-69
2023/03/30 04:55:37;;;;;;;22.88;4.45;;;11.20;99.90;;;;;;5028577;28;20045;-69
2023/03/30 04:58:02;;;;;;;17.10;3.83;;;11.10;99.90;;;;;;5016057;28;20037;-69
2023/03/30 05:00:28;;;;;;;25.58;5.47;;;11.10;99.90;;;;;;5011446;28;20030;-68
2023/03/30 05:02:54;;;;;;;18.08;5.03;;;10.90;99.90;;;;;;5028576;28;20475;-68
2023/03/30 05:05:20;;;;;;;19.92;5.45;;;10.90;99.90;;;;;;5027130;28;20033;-67
2023/03/30 05:07:46;;;;;;;21.85;5.20;;;10.90;99.90;;;;;;5008515;28;20030;-68
2023/03/30 05:10:11;;;;;;;18.73;5.82;;;10.90;99.90;;;;;;5014120;28;20034;-69
2023/03/30 05:12:37;;;;;;;28.52;10.82;;;10.90;99.90;;;;;;5026530;28;20493;-68
2023/03/30 05:15:03;;;;;;;36.83;12.63;;;10.90;99.90;;;;;;5030596;28;20936;-67
2023/03/30 05:17:33;;;;;;;24.77;6.28;;;10.90;99.90;;;;;;5023354;28;20034;-68
2023/03/30 05:19:59;;;;;;;28.92;7.25;;;10.90;99.90;;;;;;5037694;28;20497;-68
2023/03/30 05:22:25;;;;;;;28.65;5.03;;;10.90;99.90;;;;;;5051701;28;20433;-70
2023/03/30 05:24:51;;;;;;;35.70;8.35;;;11.00;99.90;;;;;;5017633;28;20057;-69
2023/03/30 05:27:17;;;;;;;39.00;10.65;;;11.10;99.90;;;;;;5029542;28;20478;-70
2023/03/30 05:29:43;;;;;;;29.27;7.20;;;11.20;99.90;;;;;;5031625;28;20315;-64
2023/03/30 05:32:09;;;;;;;20.83;5.85;;;11.20;99.90;;;;;;5030293;28;20059;-71
2023/03/30 05:34:35;;;;;;;30.35;6.72;;;11.20;99.90;;;;;;5032000;28;20123;-71
2023/03/30 05:37:01;;;;;;;26.20;5.95;;;11.20;99.90;;;;;;5021105;28;20271;-70
2023/03/30 05:39:26;;;;;;;25.40;6.80;;;11.30;99.90;;;;;;5031802;28;20035;-68
2023/03/30 05:41:52;;;;;;;27.88;6.70;;;11.30;99.90;;;;;;5029872;28;20036;-68
2023/03/30 05:44:18;;;;;;;25.60;7.93;;;11.30;99.90;;;;;;5033389;28;20778;-70
2023/03/30 05:46:43;;;;;;;37.53;9.93;;;11.30;99.90;;;;;;5029845;28;20462;-65
2023/03/30 05:49:09;;;;;;;27.77;8.65;;;11.30;99.90;;;;;;5029619;28;20037;-68
2023/03/30 05:51:35;;;;;;;27.77;6.45;;;11.40;99.90;;;;;;5031667;28;20037;-69
2023/03/30 05:54:02;;;;;;;22.77;5.03;;;11.40;99.90;;;;;;5029772;28;20037;-68
2023/03/30 05:56:28;;;;;;;23.02;4.75;;;11.50;99.90;;;;;;5014308;28;20394;-69
2023/03/30 05:58:54;;;;;;;18.88;4.47;;;11.50;99.90;;;;;;5030304;28;20055;-69
2023/03/30 06:01:20;;;;;;;23.52;4.68;;;11.50;99.90;;;;;;5032084;28;20533;-68
2023/03/30 06:03:46;;;;;;;11.38;3.45;;;11.50;99.90;;;;;;5030584;28;20434;-64
2023/03/30 06:06:12;;;;;;;22.65;3.92;;;11.60;99.90;;;;;;5028530;28;20029;-68
2023/03/30 06:08:38;;;;;;;22.98;4.45;;;11.80;99.90;;;;;;5010517;28;20063;-68
2023/03/30 06:11:04;;;;;;;18.75;4.00;;;11.90;99.90;;;;;;5011028;28;20030;-67
2023/03/30 06:13:30;;;;;;;19.63;4.50;;;11.90;99.90;;;;;;5017913;28;20040;-67
2023/03/30 06:15:56;;;;;;;18.50;4.72;;;11.90;99.90;;;;;;5029356;28;20025;-70
2023/03/30 06:18:22;;;;;;;20.08;3.95;;;11.80;99.90;;;;;;5011346;28;20108;-68
2023/03/30 06:20:48;;;;;;;19.80;3.30;;;11.90;99.90;;;;;;5023487;28;20484;-64
2023/03/30 06:23:17;;;;;;;24.42;4.03;;;11.90;99.90;;;;;;5028749;28;20111;-69
2023/03/30 06:25:51;;;;;;;16.30;3.75;;;11.90;99.90;;;;;;5027717;28;20105;-70
2023/03/30 06:28:18;;;;;;;22.25;5.03;;;11.90;99.90;;;;;;5025443;28;20094;-67
2023/03/30 06:30:44;;;;;;;18.88;3.88;;;11.90;99.90;;;;;;5010850;28;20803;-64
2023/03/30 06:33:10;;;;;;;21.67;3.90;;;11.90;99.90;;;;;;5010428;28;20073;-67
2023/03/30 06:35:36;;;;;;;72.25;22.65;;;11.90;99.90;;;;;;5018252;28;20061;-67
2023/03/30 06:38:02;;;;;;;35.13;9.38;;;11.90;99.90;;;;;;5010088;28;20491;-69
2023/03/30 06:40:27;;;;;;;23.58;5.85;;;11.90;99.90;;;;;;5027718;28;20347;-69
2023/03/30 06:42:53;;;;;;;23.88;4.03;;;11.90;99.90;;;;;;5029163;28;20083;-67
2023/03/30 06:45:19;;;;;;;19.50;3.83;;;11.90;99.90;;;;;;5030475;28;20762;-69
2023/03/30 06:47:44;;;;;;;18.25;4.57;;;12.00;99.90;;;;;;5028057;28;20460;-64
2023/03/30 06:50:10;;;;;;;29.02;4.72;;;12.10;99.90;;;;;;5036957;28;20386;-69
2023/03/30 06:52:37;;;;;;;22.70;3.47;;;12.10;99.90;;;;;;5016929;28;20445;-69
2023/03/30 06:55:03;;;;;;;21.50;4.45;;;12.30;99.90;;;;;;5011077;28;20034;-69
2023/03/30 06:57:29;;;;;;;32.42;4.00;;;12.50;99.90;;;;;;5016294;28;20025;-69
2023/03/30 06:59:55;;;;;;;20.95;3.47;;;12.70;99.90;;;;;;5030107;28;20144;-66
2023/03/30 07:02:24;;;;;;;22.88;3.92;;;12.80;99.90;;;;;;5029998;28;20565;-67
2023/03/30 07:04:50;;;;;;;20.13;3.63;;;13.00;99.90;;;;;;5028966;28;20492;-63
2023/03/30 07:07:16;;;;;;;22.17;3.38;;;13.00;99.90;;;;;;5028881;28;20025;-67
2023/03/30 07:09:42;;;;;;;28.05;4.18;;;12.90;99.90;;;;;;5028416;28;20119;-67
2023/03/30 07:12:08;;;;;;;21.98;4.32;;;12.80;99.90;;;;;;5023900;28;20290;-67
2023/03/30 07:14:33;;;;;;;19.67;3.95;;;12.80;99.90;;;;;;5025276;28;20083;-66
2023/03/30 07:16:59;;;;;;;22.60;3.45;;;13.00;99.90;;;;;;5019873;28;20021;-69
2023/03/30 07:19:25;;;;;;;26.67;4.38;;;13.00;99.90;;;;;;5032397;28;20029;-68
2023/03/30 07:21:50;;;;;;;22.55;3.75;;;13.00;99.90;;;;;;5029337;28;20049;-64
2023/03/30 07:24:16;;;;;;;21.45;3.55;;;13.00;99.90;;;;;;5028296;28;20116;-70
2023/03/30 07:26:42;;;;;;;17.65;4.05;;;13.00;99.90;;;;;;5026980;28;20378;-68
2023/03/30 07:29:07;;;;;;;20.25;3.50;;;13.10;99.90;;;;;;5027319;28;20026;-68
2023/03/30 07:31:33;;;;;;;28.63;4.13;;;13.10;99.90;;;;;;5026125;28;20125;-67
2023/03/30 07:34:01;;;;;;;17.90;3.63;;;13.20;99.90;;;;;;5027183;28;20041;-68
2023/03/30 07:36:27;;;;;;;14.45;3.58;;;13.30;99.90;;;;;;5029446;28;20033;-69
2023/03/30 07:38:52;;;;;;;19.98;3.72;;;13.30;99.90;;;;;;5028236;28;20036;-68
2023/03/30 07:41:18;;;;;;;20.77;4.50;;;13.30;99.90;;;;;;5028934;28;20032;-68
2023/03/30 07:43:44;;;;;;;25.27;3.85;;;13.40;99.90;;;;;;5029447;28;20480;-69
2023/03/30 07:46:11;;;;;;;24.25;3.63;;;13.30;99.90;;;;;;5027874;28;20588;-66
2023/03/30 07:48:37;;;;;;;19.25;3.97;;;13.20;99.90;;;;;;5029254;28;20534;-68
2023/03/30 07:51:09;;;;;;;21.15;4.35;;;13.10;99.90;;;;;;5022573;28;20040;-67
2023/03/30 07:53:36;;;;;;;21.13;4.18;;;13.00;99.90;;;;;;5027801;28;20037;-69
2023/03/30 07:56:02;;;;;;;26.08;4.35;;;13.00;99.90;;;;;;5012524;28;20037;-69
2023/03/30 07:58:28;;;;;;;20.83;4.40;;;12.90;99.90;;;;;;5021084;28;20034;-68
2023/03/30 08:00:54;;;;;;;22.50;4.20;;;12.80;99.90;;;;;;5026847;28;20033;-63
2023/03/30 08:03:21;;;;;;;27.63;4.53;;;12.80;99.90;;;;;;5030536;28;20029;-66
2023/03/30 08:05:54;;;;;;;26.08;4.88;;;12.70;99.90;;;;;;5025710;28;20044;-67
2023/03/30 08:08:19;;;;;;;18.02;4.15;;;12.60;99.90;;;;;;5029554;28;20075;-68
2023/03/30 08:10:45;;;;;;;19.58;5.00;;;12.50;99.90;;;;;;5027399;28;20085;-68
2023/03/30 08:13:11;;;;;;;25.95;4.47;;;12.40;99.90;;;;;;5028198;28;20068;-70
2023/03/30 08:15:37;;;;;;;21.98;4.45;;;12.30;99.90;;;;;;5028999;28;20056;-70
2023/03/30 08:18:06;;;;;;;19.50;4.72;;;12.30;99.90;;;;;;5027203;28;20737;-68
2023/03/30 08:20:33;;;;;;;19.42;5.38;;;12.20;99.90;;;;;;5039999;28;20127;-70
2023/03/30 08:22:59;;;;;;;18.08;5.13;;;12.20;99.90;;;;;;5034447;28;20052;-69
2023/03/30 08:25:26;;;;;;;19.30;4.85;;;12.20;99.90;;;;;;5018794;28;20126;-69
2023/03/30 08:27:51;;;;;;;23.60;5.45;;;12.20;99.90;;;;;;5019537;28;20034;-65
2023/03/30 08:30:17;;;;;;;23.65;5.07;;;12.30;99.90;;;;;;5027389;28;20084;-68
2023/03/30 08:32:43;;;;;;;17.10;5.03;;;12.30;99.90;;;;;;5027945;28;20132;-69
2023/03/30 08:35:09;;;;;;;23.77;5.57;;;12.30;99.90;;;;;;5024964;28;20037;-68
2023/03/30 08:37:35;;;;;;;22.33;5.03;;;12.30;99.90;;;;;;5027224;28;20029;-69
2023/03/30 08:40:00;;;;;;;22.70;5.60;;;12.30;99.90;;;;;;5021612;28;20113;-69
2023/03/30 08:42:39;;;;;;;24.95;6.03;;;12.20;99.90;;;;;;5027047;28;20128;-69
2023/03/30 08:45:09;;;;;;;25.00;4.97;;;12.10;99.90;;;;;;5026132;28;20478;-67
2023/03/30 08:47:43;;;;;;;15.10;5.67;;;12.00;99.90;;;;;;5012225;28;20065;-69
2023/03/30 08:50:16;;;;;;;14.57;5.82;;;12.00;99.90;;;;;;5018199;28;20291;-68
2023/03/30 08:52:42;;;;;;;27.20;5.88;;;11.90;99.90;;;;;;5028270;28;20042;-68
2023/03/30 08:55:27;;;;;;;18.40;5.55;;;11.90;99.90;;;;;;5027903;28;20064;-70
2023/03/30 08:57:53;;;;;;;15.35;5.50;;;11.90;99.90;;;;;;5029883;28;20108;-65
2023/03/30 09:00:44;;;;;;;17.75;6.35;;;11.90;99.90;;;;;;5021871;28;20026;-64
2023/03/30 09:03:35;;;;;;;16.88;5.63;;;11.90;99.90;;;;;;4998908;28;20053;-66
2023/03/30 09:06:08;;;;;;;13.13;5.78;;;11.80;99.90;;;;;;5008090;28;20105;-68
2023/03/30 09:08:34;;;;;;;14.65;4.90;;;11.80;99.90;;;;;;5008451;28;20042;-66
2023/03/30 09:11:03;;;;;;;15.57;4.72;;;11.70;99.90;;;;;;5017402;28;20106;-67
2023/03/30 09:13:36;;;;;;;11.85;4.18;;;11.60;99.90;;;;;;5028132;28;20394;-66
2023/03/30 09:16:19;;;;;;;13.07;4.32;;;11.60;99.90;;;;;;5027424;28;20474;-68
2023/03/30 09:18:51;;;;;;;11.50;4.05;;;11.70;99.90;;;;;;5028257;28;20478;-67
2023/03/30 09:21:20;;;;;;;11.35;4.20;;;11.70;99.90;;;;;;5044913;28;20072;-68
2023/03/30 09:23:46;;;;;;;15.18;4.40;;;11.70;99.90;;;;;;5048297;28;20036;-68
2023/03/30 09:26:44;;;;;;;10.52;3.90;;;11.60;99.90;;;;;;5036640;28;20029;-67
2023/03/30 09:29:18;;;;;;;11.80;3.85;;;11.60;99.90;;;;;;5029811;28;20080;-68
2023/03/30 09:31:46;;;;;;;9.25;3.70;;;11.60;99.90;;;;;;5028356;28;20029;-67
2023/03/30 09:34:28;;;;;;;12.63;4.25;;;11.60;99.90;;;;;;5027286;28;20370;-68
2023/03/30 09:37:03;;;;;;;12.73;3.70;;;11.60;99.90;;;;;;5028100;28;20033;-63
2023/03/30 09:39:32;;;;;;;9.80;3.90;;;11.50;99.90;;;;;;5028588;28;20033;-68
2023/03/30 09:42:12;;;;;;;10.52;4.18;;;11.50;99.90;;;;;;5027334;28;20059;-62
2023/03/30 09:44:48;;;;;;;11.98;3.72;;;11.50;99.90;;;;;;5028330;28;20038;-68
2023/03/30 09:47:20;;;;;;;11.02;4.05;;;11.40;99.90;;;;;;5027296;28;20026;-68
2023/03/30 09:49:46;;;;;;;12.48;4.32;;;11.40;99.90;;;;;;5033137;28;20036;-68
2023/03/30 09:52:23;;;;;;;15.30;4.45;;;11.40;99.90;;;;;;5047224;28;20040;-66
2023/03/30 09:54:49;;;;;;;12.50;4.22;;;11.30;99.90;;;;;;5044562;28;20045;-68
2023/03/30 09:57:29;;;;;;;16.85;4.70;;;11.20;99.90;;;;;;5026619;28;20227;-68
2023/03/30 09:59:56;;;;;;;14.27;4.60;;;11.20;99.90;;;;;;5027601;28;20075;-64
2023/03/30 10:02:24;;;;;;;11.27;4.82;;;11.20;99.90;;;;;;5029514;28;20113;-67
2023/03/30 10:04:53;;;;;;;18.30;4.95;;;11.20;99.90;;;;;;5031334;28;20047;-68
2023/03/30 10:07:31;;;;;;;15.82;4.55;;;11.20;99.90;;;;;;5030610;28;20028;-68
2023/03/30 10:10:12;;;;;;;13.23;4.65;;;11.20;99.90;;;;;;5032314;28;20040;-63
2023/03/30 10:12:38;;;;;;;14.45;4.10;;;11.30;99.90;;;;;;5031433;28;20041;-68
2023/03/30 10:15:04;;;;;;;9.38;3.15;;;11.30;99.90;;;;;;5030323;28;20042;-67
2023/03/30 10:17:30;;;;;;;9.35;3.20;;;11.40;99.90;;;;;;5031036;28;20041;-67
2023/03/30 10:20:15;;;;;;;11.13;3.75;;;11.50;99.90;;;;;;5037174;28;20404;-63
2023/03/30 10:22:54;;;;;;;16.17;4.03;;;11.40;99.90;;;;;;5011150;28;20537;-68
2023/03/30 10:25:30;;;;;;;8.60;4.03;;;11.40;99.90;;;;;;4996240;28;20034;-68
2023/03/30 10:28:01;;;;;;;7.90;4.03;;;11.50;99.90;;;;;;4991274;28;20070;-68
2023/03/30 10:30:28;;;;;;;13.43;3.70;;;11.50;99.90;;;;;;4991557;28;20026;-68
2023/03/30 10:33:00;;;;;;;9.50;3.25;;;11.70;99.90;;;;;;4991627;28;20042;-67
2023/03/30 10:35:33;;;;;;;6.65;2.97;;;11.80;99.90;;;;;;4991079;28;20655;-68
2023/03/30 10:38:01;;;;;;;8.52;3.25;;;12.00;99.90;;;;;;4991210;28;20092;-63
2023/03/30 10:40:33;;;;;;;12.38;3.15;;;12.20;99.90;;;;;;4993077;28;20035;-68
2023/03/30 10:43:01;;;;;;;11.30;3.72;;;12.20;99.90;;;;;;4991242;28;20052;-63
2023/03/30 10:45:47;;;;;;;6.85;3.67;;;12.20;99.90;;;;;;4991050;28;20023;-68
2023/03/30 10:48:19;;;;;;;9.25;3.67;;;12.30;99.90;;;;;;4990549;28;20041;-68
2023/03/30 10:51:17;;;;;;;8.57;3.65;;;12.30;99.90;;;;;;5004088;28;20026;-67
2023/03/30 10:53:49;;;;;;;20.50;5.32;;;12.30;99.90;;;;;;5006060;28;20050;-68
2023/03/30 10:56:26;;;;;;;12.75;4.07;;;12.20;99.90;;;;;;4969682;28;20517;-68
2023/03/30 10:59:26;;;;;;;11.63;4.00;;;12.20;99.90;;;;;;4979048;28;20062;-68
2023/03/30 11:02:06;;;;;;;11.50;4.03;;;12.30;99.90;;;;;;4991326;28;20033;-68
2023/03/30 11:04:44;;;;;;;9.73;3.65;;;12.30;99.90;;;;;;4991238;28;20367;-68
2023/03/30 11:07:40;;;;;;;15.88;3.90;;;12.20;99.90;;;;;;4981326;28;20375;-66
2023/03/30 11:10:30;;;;;;;12.27;4.00;;;12.20;99.90;;;;;;4985460;28;20038;-66
2023/03/30 11:13:12;;;;;;;16.27;3.75;;;12.10;99.90;;;;;;4990614;28;20022;-67
2023/03/30 11:15:46;;;;;;;14.27;4.15;;;12.10;99.90;;;;;;4990974;28;20034;-66
2023/03/30 11:18:24;;;;;;;13.63;4.15;;;12.20;99.90;;;;;;4974518;28;20057;-65
2023/03/30 11:20:54;;;;;;;11.73;4.00;;;12.20;99.90;;;;;;5011397;28;20821;-67
2023/03/30 11:23:43;;;;;;;10.45;4.00;;;12.20;99.90;;;;;;5037773;28;20932;-66
2023/03/30 11:26:14;;;;;;;14.25;4.35;;;12.20;99.90;;;;;;5029891;28;20156;-66
2023/03/30 11:29:14;;;;;;;9.93;4.43;;;12.10;99.90;;;;;;5024891;28;20052;-67
2023/03/30 11:32:17;;;;;;;12.20;4.53;;;12.10;99.90;;;;;;5028686;28;20072;-67
2023/03/30 11:34:50;;;;;;;13.52;3.70;;;12.10;99.90;;;;;;5027657;28;20292;-66
2023/03/30 11:37:39;;;;;;;13.68;3.63;;;12.00;99.90;;;;;;5009182;28;20061;-66
2023/03/30 11:40:40;;;;;;;19.83;3.75;;;12.00;99.90;;;;;;5027050;28;20029;-63
2023/03/30 11:43:10;;;;;;;13.23;4.50;;;11.90;99.90;;;;;;5010143;28;20042;-66
2023/03/30 11:45:50;;;;;;;14.70;4.00;;;11.90;99.90;;;;;;5028969;28;20534;-68
2023/03/30 11:48:44;;;;;;;13.10;4.25;;;11.90;99.90;;;;;;5028189;28;20496;-67
2023/03/30 11:51:18;;;;;;;14.70;4.28;;;11.90;99.90;;;;;;5042351;28;20051;-67
2023/03/30 11:54:00;;;;;;;9.95;4.30;;;11.90;99.90;;;;;;5027763;28;20099;-62
2023/03/30 11:56:28;;;;;;;8.73;3.60;;;11.90;99.90;;;;;;5009831;28;20025;-66
2023/03/30 11:59:32;;;;;;;12.73;3.90;;;11.90;99.90;;;;;;5014564;28;20079;-66
2023/03/30 12:02:05;;;;;;;9.23;4.00;;;12.00;99.90;;;;;;5030433;28;20112;-63
2023/03/30 12:04:44;;;;;;;11.38;3.90;;;12.00;99.90;;;;;;5024640;28;20116;-67
2023/03/30 12:07:42;;;;;;;8.68;3.83;;;12.00;99.90;;;;;;5009244;28;20036;-66
2023/03/30 12:10:19;;;;;;;12.10;4.03;;;12.00;99.90;;;;;;5016414;28;20132;-63
2023/03/30 12:12:48;;;;;;;11.75;4.40;;;12.00;99.90;;;;;;5029319;28;20048;-67
2023/03/30 12:15:37;;;;;;;10.48;4.15;;;12.00;99.90;;;;;;5040938;28;20758;-67
2023/03/30 12:18:17;;;;;;;11.65;4.60;;;12.10;99.90;;;;;;5048776;28;20025;-67
2023/03/30 12:21:01;;;;;;;;;;;12.20;99.90;;;;;;5045551;28;20196;-66
2023/03/30 12:23:38;;;;;;;13.35;4.38;;;12.30;99.90;;;;;;5027208;28;20155;-66
2023/03/30 12:26:28;;;;;;;12.48;4.90;;;12.20;99.90;;;;;;5029076;28;20029;-65
2023/03/30 12:28:59;;;;;;;10.15;4.70;;;12.20;99.90;;;;;;5027287;28;20079;-66
2023/03/30 12:31:57;;;;;;;11.00;4.65;;;12.10;99.90;;;;;;5024929;28;20074;-67
2023/03/30 12:34:26;;;;;;;13.63;4.72;;;12.10;99.90;;;;;;5025502;28;20220;-65
2023/03/30 12:37:03;;;;;;;10.98;4.07;;;12.20;99.90;;;;;;5027746;28;20030;-67
2023/03/30 12:39:33;;;;;;;18.30;4.20;;;12.30;99.90;;;;;;5028135;28;20168;-66
2023/03/30 12:42:25;;;;;;;12.07;3.90;;;12.30;99.90;;;;;;5030886;28;21465;-66
2023/03/30 12:45:21;;;;;;;13.00;4.47;;;12.40;99.90;;;;;;5012675;28;20041;-68
2023/03/30 12:48:05;;;;;;;11.15;4.57;;;12.30;99.90;;;;;;5008668;28;20058;-68
2023/03/30 12:50:36;;;;;;;11.48;3.88;;;12.30;99.90;;;;;;5020079;28;20128;-66
2023/03/30 12:53:33;;;;;;;10.18;3.85;;;12.50;99.90;;;;;;5038611;28;20099;-65
2023/03/30 12:56:23;;;;;;;11.25;4.15;;;12.50;99.90;;;;;;5024304;28;20021;-64
2023/03/30 12:59:04;;;;;;;11.38;4.18;;;12.50;99.90;;;;;;5009774;28;20034;-64
2023/03/30 13:01:48;;;;;;;14.32;4.68;;;12.50;99.90;;;;;;5023059;28;20932;-62